createdAt,value
2024-04-15T00:01:54.358Z,13.43
2024-04-15T00:04:21.080Z,13.55
2024-04-15T00:06:47.766Z,13.59
2024-04-15T00:09:14.364Z,13.61
2024-04-15T00:11:40.980Z,13.74
2024-04-15T00:14:07.828Z,13.73
2024-04-15T00:16:34.524Z,13.76
2024-04-15T00:19:01.389Z,13.84
2024-04-15T00:21:27.964Z,13.76
2024-04-15T00:23:54.598Z,13.44
2024-04-15T00:26:21.191Z,13.73
2024-04-15T00:28:48.682Z,13.60
2024-04-15T00:31:15.290Z,13.56
2024-04-15T00:33:41.887Z,13.55
2024-04-15T00:36:08.664Z,13.52
2024-04-15T00:38:35.275Z,13.62
2024-04-15T00:41:01.877Z,13.66
2024-04-15T00:43:28.507Z,13.60
2024-04-15T00:45:55.237Z,13.67
2024-04-15T00:48:22.022Z,13.76
2024-04-15T00:50:50.638Z,13.69
2024-04-15T00:53:22.563Z,13.76
2024-04-15T00:55:53.016Z,13.65
2024-04-15T00:58:20.876Z,13.63
2024-04-15T01:00:48.531Z,13.67
2024-04-15T01:03:15.699Z,13.59
2024-04-15T01:05:42.484Z,13.59
2024-04-15T01:08:09.892Z,13.55
2024-04-15T01:13:06.251Z,13.61
2024-04-15T01:15:32.932Z,13.42
2024-04-15T01:17:59.652Z,13.45
2024-04-15T01:20:26.487Z,13.36
2024-04-15T01:23:02.061Z,13.29
2024-04-15T01:25:28.699Z,13.38
2024-04-15T01:27:57.169Z,13.37
2024-04-15T01:30:23.767Z,13.35
2024-04-15T01:32:50.791Z,13.29
2024-04-15T01:35:20.817Z,13.31
2024-04-15T01:37:50.044Z,13.32
2024-04-15T01:40:17.043Z,13.26
2024-04-15T01:42:43.725Z,13.07
2024-04-15T01:45:10.320Z,13.04
2024-04-15T01:47:37.062Z,13.02
2024-04-15T01:50:04.207Z,13.03
2024-04-15T01:52:30.795Z,13.15
2024-04-15T01:54:57.380Z,13.21
2024-04-15T01:57:24.556Z,13.36
2024-04-15T01:59:51.213Z,13.35
2024-04-15T02:02:18.138Z,13.35
2024-04-15T02:04:44.871Z,13.31
2024-04-15T02:07:11.674Z,12.79
2024-04-15T02:09:38.400Z,13.06
2024-04-15T02:12:05.376Z,13.03
2024-04-15T02:14:32.004Z,12.87
2024-04-15T02:16:58.661Z,13.00
2024-04-15T02:19:26.440Z,12.73
2024-04-15T02:21:53.062Z,12.59
2024-04-15T02:24:19.627Z,12.46
2024-04-15T02:26:46.299Z,12.52
2024-04-15T02:29:12.942Z,12.59
2024-04-15T02:31:39.560Z,12.56
2024-04-15T02:34:06.222Z,12.74
2024-04-15T02:36:32.930Z,12.78
2024-04-15T02:38:59.596Z,12.60
2024-04-15T02:41:26.216Z,12.44
2024-04-15T02:43:52.893Z,12.39
2024-04-15T02:46:19.842Z,12.42
2024-04-15T02:48:46.496Z,12.37
2024-04-15T02:51:13.245Z,12.32
2024-04-15T02:53:39.808Z,12.46
2024-04-15T02:56:07.055Z,12.65
2024-04-15T02:58:33.656Z,12.16
2024-04-15T03:01:00.525Z,12.12
2024-04-15T03:03:27.141Z,12.29
2024-04-15T03:05:54.613Z,12.31
2024-04-15T03:08:21.184Z,12.33
2024-04-15T03:10:47.840Z,12.43
2024-04-15T03:13:14.532Z,12.44
2024-04-15T03:15:41.257Z,12.50
2024-04-15T03:18:07.996Z,12.63
2024-04-15T03:20:34.602Z,12.63
2024-04-15T03:23:01.191Z,12.63
2024-04-15T03:25:27.918Z,12.77
2024-04-15T03:27:54.487Z,12.80
2024-04-15T03:30:21.137Z,12.77
2024-04-15T03:32:47.949Z,12.76
2024-04-15T03:35:16.199Z,12.79
2024-04-15T03:37:43.405Z,12.74
2024-04-15T03:40:11.696Z,12.66
2024-04-15T03:42:38.681Z,12.62
2024-04-15T03:45:06.911Z,12.62
2024-04-15T03:47:33.539Z,12.58
2024-04-15T03:50:00.186Z,12.65
2024-04-15T03:52:27.084Z,12.59
2024-04-15T03:54:53.698Z,12.58
2024-04-15T03:57:20.369Z,12.57
2024-04-15T03:59:47.336Z,12.52
2024-04-15T04:02:14.040Z,12.06
2024-04-15T04:04:41.872Z,12.32
2024-04-15T04:07:08.683Z,12.43
2024-04-15T04:09:38.978Z,12.46
2024-04-15T04:12:06.050Z,11.92
2024-04-15T04:14:32.727Z,12.53
2024-04-15T04:16:59.319Z,11.88
2024-04-15T04:19:26.987Z,12.28
2024-04-15T04:21:53.791Z,12.35
2024-04-15T04:24:20.575Z,12.30
2024-04-15T04:26:47.343Z,12.28
2024-04-15T04:29:13.937Z,12.22
2024-04-15T04:31:41.006Z,12.21
2024-04-15T04:34:07.926Z,12.19
2024-04-15T04:36:34.690Z,12.15
2024-04-15T04:39:01.365Z,12.29
2024-04-15T04:41:27.960Z,12.16
2024-04-15T04:43:54.974Z,12.28
2024-04-15T04:46:21.672Z,12.22
2024-04-15T04:48:48.522Z,12.20
2024-04-15T04:51:15.240Z,12.29
2024-04-15T04:53:41.911Z,12.33
2024-04-15T04:56:09.883Z,12.36
2024-04-15T04:58:36.858Z,12.32
2024-04-15T05:01:13.217Z,12.44
2024-04-15T05:03:41.565Z,12.31
2024-04-15T05:06:08.699Z,12.50
2024-04-15T05:08:35.847Z,12.55
2024-04-15T05:11:03.118Z,12.50
2024-04-15T05:13:29.766Z,12.17
2024-04-15T05:16:10.148Z,12.16
2024-04-15T05:18:40.396Z,12.26
2024-04-15T05:21:13.002Z,12.38
2024-04-15T05:23:39.632Z,12.28
2024-04-15T05:26:06.218Z,12.19
2024-04-15T05:28:32.849Z,12.30
2024-04-15T05:30:59.513Z,12.40
2024-04-15T05:33:26.372Z,12.54
2024-04-15T05:35:53.033Z,12.55
2024-04-15T05:38:19.746Z,12.59
2024-04-15T05:40:46.440Z,12.62
2024-04-15T05:43:14.246Z,12.63
2024-04-15T05:45:41.930Z,12.68
2024-04-15T05:48:08.672Z,12.71
2024-04-15T05:50:35.620Z,12.73
2024-04-15T05:53:02.595Z,12.77
2024-04-15T05:55:29.263Z,12.78
2024-04-15T05:57:55.931Z,12.82
2024-04-15T06:00:24.248Z,12.82
2024-04-15T06:02:50.893Z,12.83
2024-04-15T06:05:17.578Z,12.86
2024-04-15T06:07:44.241Z,12.90
2024-04-15T06:10:11.251Z,12.93
2024-04-15T06:12:38.176Z,12.93
2024-04-15T06:15:05.185Z,12.94
2024-04-15T06:17:31.991Z,12.82
2024-04-15T06:19:58.691Z,12.99
2024-04-15T06:22:25.352Z,12.97
2024-04-15T06:24:52.086Z,13.02
2024-04-15T06:27:19.814Z,13.00
2024-04-15T06:29:46.960Z,13.01
2024-04-15T06:32:13.788Z,13.01
2024-04-15T06:34:40.611Z,13.05
2024-04-15T06:37:07.480Z,13.10
2024-04-15T06:39:35.489Z,13.15
2024-04-15T06:42:02.306Z,13.19
2024-04-15T06:44:29.130Z,13.24
2024-04-15T06:46:56.349Z,13.41
2024-04-15T06:49:23.075Z,13.57
2024-04-15T06:51:50.067Z,13.74
2024-04-15T06:54:16.666Z,14.13
2024-04-15T06:56:43.262Z,14.50
2024-04-15T06:59:09.841Z,15.13
2024-04-15T07:01:39.240Z,15.54
2024-04-15T07:04:08.390Z,15.71
2024-04-15T07:06:35.335Z,15.59
2024-04-15T07:09:02.136Z,15.38
2024-04-15T07:11:29.049Z,15.26
2024-04-15T07:13:55.744Z,15.26
2024-04-15T07:16:23.258Z,15.21
2024-04-15T07:18:50.132Z,15.31
2024-04-15T07:21:16.824Z,15.50
2024-04-15T07:23:47.126Z,15.42
2024-04-15T07:26:13.853Z,15.40
2024-04-15T07:28:40.514Z,15.40
2024-04-15T07:31:08.036Z,15.42
2024-04-15T07:33:34.831Z,15.22
2024-04-15T07:36:02.159Z,15.48
2024-04-15T07:38:29.260Z,15.68
2024-04-15T07:41:00.170Z,15.69
2024-04-15T07:43:27.975Z,15.96
2024-04-15T07:45:54.609Z,15.95
2024-04-15T07:48:21.483Z,16.10
2024-04-15T07:50:48.047Z,16.14
2024-04-15T07:53:14.683Z,16.16
2024-04-15T07:55:45.490Z,16.03
2024-04-15T07:58:12.139Z,15.93
2024-04-15T08:00:38.947Z,15.86
2024-04-15T08:03:06.571Z,15.82
2024-04-15T08:05:33.152Z,15.99
2024-04-15T08:07:59.778Z,16.03
2024-04-15T08:10:26.460Z,16.06
2024-04-15T08:12:53.171Z,16.08
2024-04-15T08:15:21.479Z,15.91
2024-04-15T08:17:48.554Z,15.84
2024-04-15T08:20:15.664Z,15.84
2024-04-15T08:22:45.188Z,15.77
2024-04-15T08:25:12.584Z,15.72
2024-04-15T08:27:39.340Z,15.79
2024-04-15T08:30:06.471Z,15.75
2024-04-15T08:32:33.433Z,15.71
2024-04-15T08:35:00.225Z,15.71
2024-04-15T08:37:26.857Z,15.73
2024-04-15T08:39:53.683Z,15.77
2024-04-15T08:42:31.847Z,15.66
2024-04-15T08:45:00.887Z,15.51
2024-04-15T08:47:31.457Z,15.88
2024-04-15T08:49:59.093Z,15.80
2024-04-15T08:52:26.284Z,15.76
2024-04-15T08:54:53.518Z,15.68
2024-04-15T08:57:21.421Z,15.75
2024-04-15T08:59:50.939Z,15.77
2024-04-15T09:02:18.046Z,15.62
2024-04-15T09:04:45.464Z,15.80
2024-04-15T09:07:12.515Z,15.34
2024-04-15T09:09:39.266Z,15.82
2024-04-15T09:12:06.343Z,15.69
2024-04-15T09:14:35.439Z,15.65
2024-04-15T09:17:03.459Z,15.80
2024-04-15T09:19:33.871Z,15.71
2024-04-15T09:22:04.319Z,15.82
2024-04-15T09:24:31.114Z,15.35
2024-04-15T09:26:57.789Z,15.89
2024-04-15T09:29:24.401Z,16.18
2024-04-15T09:31:51.091Z,16.33
2024-04-15T09:34:17.880Z,16.37
2024-04-15T09:37:02.800Z,16.55
2024-04-15T09:39:33.170Z,16.41
2024-04-15T09:42:01.620Z,16.46
2024-04-15T09:44:30.729Z,16.72
2024-04-15T09:47:03.874Z,16.51
2024-04-15T09:49:34.978Z,16.67
2024-04-15T09:52:05.448Z,16.62
2024-04-15T09:54:41.726Z,16.63
2024-04-15T09:57:13.918Z,16.55
2024-04-15T09:59:43.779Z,16.04
2024-04-15T10:02:27.525Z,16.28
2024-04-15T10:05:15.000Z,16.21
2024-04-15T10:07:46.715Z,16.24
2024-04-15T10:10:14.060Z,16.54
2024-04-15T10:12:41.148Z,16.70
2024-04-15T10:15:09.405Z,16.82
2024-04-15T10:17:36.187Z,16.70
2024-04-15T10:20:10.945Z,16.68
2024-04-15T10:22:42.512Z,16.61
2024-04-15T10:25:10.354Z,16.76
2024-04-15T10:27:37.316Z,16.62
2024-04-15T10:30:18.751Z,16.84
2024-04-15T10:32:48.619Z,17.04
2024-04-15T10:35:23.216Z,17.08
2024-04-15T10:37:54.643Z,17.18
2024-04-15T10:40:22.089Z,17.18
2024-04-15T10:42:48.709Z,17.21
2024-04-15T10:45:18.522Z,17.63
2024-04-15T10:47:49.910Z,17.86
2024-04-15T10:50:17.357Z,17.83
2024-04-15T10:52:44.349Z,18.08
2024-04-15T10:55:11.424Z,17.82
2024-04-15T10:57:42.384Z,17.83
2024-04-15T11:00:13.756Z,17.86
2024-04-15T11:02:48.418Z,17.97
2024-04-15T11:05:16.047Z,17.90
2024-04-15T11:07:43.662Z,17.87
2024-04-15T11:10:13.244Z,18.06
2024-04-15T11:12:40.880Z,18.21
2024-04-15T11:15:12.435Z,18.29
2024-04-15T11:17:49.480Z,18.26
2024-04-15T11:20:16.891Z,18.10
2024-04-15T11:22:44.160Z,18.19
2024-04-15T11:25:13.956Z,18.26
2024-04-15T11:27:43.167Z,17.84
2024-04-15T11:30:15.121Z,18.50
2024-04-15T11:32:42.609Z,18.54
2024-04-15T11:35:12.154Z,18.22
2024-04-15T11:37:39.035Z,18.20
2024-04-15T11:40:08.123Z,18.19
2024-04-15T11:42:39.993Z,18.12
2024-04-15T11:45:07.251Z,17.96
2024-04-15T11:47:34.186Z,18.00
2024-04-15T11:50:04.278Z,17.90
2024-04-15T11:52:31.415Z,17.95
2024-04-15T11:54:58.212Z,17.96
2024-04-15T11:57:24.857Z,17.93
2024-04-15T11:59:53.361Z,17.80
2024-04-15T12:02:19.916Z,17.77
2024-04-15T12:04:47.868Z,17.98
2024-04-15T12:07:15.118Z,18.00
2024-04-15T12:09:42.431Z,18.03
2024-04-15T12:12:09.064Z,18.02
2024-04-15T12:14:36.388Z,17.82
2024-04-15T12:17:05.428Z,17.97
2024-04-15T12:19:32.345Z,17.89
2024-04-15T12:21:59.040Z,17.87
2024-04-15T12:24:25.813Z,18.00
2024-04-15T12:26:52.514Z,17.78
2024-04-15T12:29:19.274Z,17.63
2024-04-15T12:31:47.301Z,17.16
2024-04-15T12:34:13.967Z,16.53
2024-04-15T12:36:40.666Z,17.05
2024-04-15T12:39:08.265Z,17.19
2024-04-15T12:41:34.857Z,17.12
2024-04-15T12:44:03.694Z,17.18
2024-04-15T12:46:32.155Z,17.16
2024-04-15T12:48:58.870Z,17.00
2024-04-15T12:51:25.518Z,16.86
2024-04-15T12:53:52.147Z,16.85
2024-04-15T12:56:19.043Z,17.01
2024-04-15T12:58:45.710Z,17.11
2024-04-15T13:01:12.394Z,17.09
2024-04-15T13:03:39.187Z,17.19
2024-04-15T13:06:05.882Z,17.15
2024-04-15T13:08:32.586Z,17.21
2024-04-15T13:10:59.187Z,17.24
2024-04-15T13:13:25.841Z,17.38
2024-04-15T13:15:52.720Z,17.21
2024-04-15T13:18:19.564Z,17.09
2024-04-15T13:20:46.401Z,17.06
2024-04-15T13:23:13.377Z,17.32
2024-04-15T13:25:39.990Z,17.29
2024-04-15T13:28:08.769Z,17.14
2024-04-15T13:30:35.479Z,16.86
2024-04-15T13:33:02.490Z,16.70
2024-04-15T13:35:29.381Z,16.77
2024-04-15T13:37:57.049Z,16.67
2024-04-15T13:40:24.031Z,16.66
2024-04-15T13:42:51.023Z,16.67
2024-04-15T13:45:17.661Z,16.78
2024-04-15T13:47:44.442Z,16.88
2024-04-15T13:50:11.405Z,16.83
2024-04-15T13:52:38.069Z,16.86
2024-04-15T13:55:15.223Z,16.85
2024-04-15T13:57:42.152Z,16.74
2024-04-15T14:00:10.201Z,16.84
2024-04-15T14:03:42.712Z,17.11
2024-04-15T14:06:11.635Z,16.95
2024-04-15T14:08:38.795Z,17.18
2024-04-15T14:11:05.973Z,17.19
2024-04-15T14:13:32.687Z,17.28
2024-04-15T14:16:00.465Z,17.24
2024-04-15T14:18:28.619Z,17.04
2024-04-15T14:20:55.632Z,16.96
2024-04-15T14:23:22.342Z,16.95
2024-04-15T14:25:49.066Z,17.01
2024-04-15T14:28:15.851Z,16.71
2024-04-15T14:30:42.510Z,16.93
2024-04-15T14:33:09.155Z,16.66
2024-04-15T14:35:36.602Z,16.65
2024-04-15T14:38:03.353Z,16.42
2024-04-15T14:40:31.852Z,16.46
2024-04-15T14:42:59.872Z,16.63
2024-04-15T14:45:26.469Z,16.45
2024-04-15T14:47:53.424Z,16.27
2024-04-15T14:50:20.019Z,16.14
2024-04-15T14:52:46.586Z,16.09
2024-04-15T14:55:13.567Z,16.06
2024-04-15T14:57:41.500Z,16.06
2024-04-15T15:00:12.872Z,16.15
2024-04-15T15:02:39.988Z,16.03
2024-04-15T15:05:06.879Z,15.91
2024-04-15T15:07:33.834Z,15.68
2024-04-15T15:10:00.594Z,15.84
2024-04-15T15:12:27.311Z,15.99
2024-04-15T15:14:53.913Z,16.12
2024-04-15T15:17:21.584Z,16.19
2024-04-15T15:22:17.952Z,16.15
2024-04-15T15:24:44.615Z,16.25
2024-04-15T15:27:11.316Z,16.29
2024-04-15T15:29:39.906Z,16.09
2024-04-15T15:32:06.916Z,16.13
2024-04-15T15:34:33.617Z,15.89
2024-04-15T15:37:00.345Z,15.89
2024-04-15T15:39:27.026Z,15.81
2024-04-15T15:41:53.763Z,15.62
2024-04-15T15:44:20.283Z,15.55
2024-04-15T15:46:46.965Z,15.40
2024-04-15T15:49:13.624Z,15.39
2024-04-15T15:51:42.753Z,15.48
2024-04-15T15:54:09.734Z,15.21
2024-04-15T15:56:38.944Z,15.21
2024-04-15T15:59:06.279Z,14.91
2024-04-15T16:01:33.162Z,14.93
2024-04-15T16:03:59.952Z,15.22
2024-04-15T16:06:26.864Z,15.00
2024-04-15T16:08:53.497Z,15.04
2024-04-15T16:11:31.112Z,14.88
2024-04-15T16:14:04.040Z,14.64
2024-04-15T16:16:30.660Z,14.68
2024-04-15T16:18:57.336Z,14.41
2024-04-15T16:21:24.006Z,14.30
2024-04-15T16:23:50.814Z,14.27
2024-04-15T16:26:18.769Z,14.22
2024-04-15T16:28:46.931Z,14.17
2024-04-15T16:31:13.680Z,14.32
2024-04-15T16:33:40.510Z,14.06
2024-04-15T16:36:08.553Z,14.16
2024-04-15T16:38:35.518Z,14.10
2024-04-15T16:41:05.708Z,13.84
2024-04-15T16:43:32.404Z,13.73
2024-04-15T16:45:59.192Z,14.02
2024-04-15T16:48:27.053Z,14.10
2024-04-15T16:50:53.808Z,13.92
2024-04-15T16:53:20.336Z,14.03
2024-04-15T16:55:49.921Z,13.98
2024-04-15T16:58:18.114Z,14.12
2024-04-15T17:00:45.697Z,14.04
2024-04-15T17:03:12.517Z,13.97
2024-04-15T17:05:39.182Z,13.90
2024-04-15T17:08:08.213Z,13.77
2024-04-15T17:10:35.059Z,13.46
2024-04-15T17:13:01.741Z,13.02
2024-04-15T17:15:30.496Z,12.21
2024-04-15T17:17:57.322Z,11.35
2024-04-15T17:20:24.239Z,10.80
2024-04-15T17:22:51.002Z,10.24
2024-04-15T17:25:17.986Z,10.12
2024-04-15T17:27:45.234Z,9.90
2024-04-15T17:30:13.101Z,9.64
2024-04-15T17:32:40.439Z,9.58
2024-04-15T17:35:07.370Z,9.55
2024-04-15T17:37:34.155Z,9.65
2024-04-15T17:40:04.836Z,9.68
2024-04-15T17:42:31.499Z,9.27
2024-04-15T17:44:58.068Z,9.17
2024-04-15T17:47:24.782Z,9.20
2024-04-15T17:49:51.497Z,9.08
2024-04-15T17:52:18.376Z,8.95
2024-04-15T17:54:47.018Z,9.03
2024-04-15T17:57:13.614Z,8.92
2024-04-15T17:59:40.302Z,8.89
2024-04-15T18:02:07.107Z,8.88
2024-04-15T18:04:33.837Z,8.92
2024-04-15T18:07:01.143Z,8.63
2024-04-15T18:09:30.410Z,8.81
2024-04-15T18:11:57.810Z,8.83
2024-04-15T18:14:24.567Z,8.89
2024-04-15T18:16:51.254Z,8.90
2024-04-15T18:19:18.056Z,8.96
2024-04-15T18:21:47.623Z,8.93
2024-04-15T18:24:14.392Z,8.93
2024-04-15T18:26:42.700Z,8.87
2024-04-15T18:29:09.454Z,8.87
2024-04-15T18:31:36.209Z,8.82
2024-04-15T18:34:03.185Z,8.88
2024-04-15T18:36:32.304Z,8.88
2024-04-15T18:38:58.957Z,8.75
2024-04-15T18:41:26.083Z,8.71
2024-04-15T18:43:52.668Z,8.63
2024-04-15T18:46:19.369Z,8.52
2024-04-15T18:48:46.187Z,8.53
2024-04-15T18:51:12.743Z,8.42
2024-04-15T18:53:39.348Z,8.48
2024-04-15T18:56:08.066Z,8.30
2024-04-15T18:58:34.906Z,8.45
2024-04-15T19:01:01.884Z,8.42
2024-04-15T19:03:28.888Z,8.38
2024-04-15T19:05:55.721Z,8.36
2024-04-15T19:08:24.300Z,8.43
2024-04-15T19:10:50.947Z,8.41
2024-04-15T19:13:18.987Z,8.36
2024-04-15T19:15:45.649Z,8.43
2024-04-15T19:18:12.482Z,8.38
2024-04-15T19:20:40.383Z,8.38
2024-04-15T19:23:07.050Z,8.38
2024-04-15T19:25:34.436Z,8.29
2024-04-15T19:28:01.318Z,8.37
2024-04-15T19:30:28.089Z,8.33
2024-04-15T19:32:54.733Z,8.41
2024-04-15T19:35:21.509Z,8.37
2024-04-15T19:37:48.335Z,8.42
2024-04-15T19:40:15.106Z,8.43
2024-04-15T19:42:41.823Z,8.27
2024-04-15T19:45:11.637Z,8.42
2024-04-15T19:47:41.087Z,8.44
2024-04-15T19:50:08.004Z,8.46
2024-04-15T19:52:34.689Z,8.34
2024-04-15T19:55:04.183Z,8.39
2024-04-15T19:57:30.853Z,8.25
2024-04-15T19:59:57.512Z,8.30
2024-04-15T20:02:24.137Z,8.29
2024-04-15T20:04:50.996Z,8.35
2024-04-15T20:07:17.756Z,8.25
2024-04-15T20:09:45.608Z,8.24
2024-04-15T20:12:12.230Z,8.10
2024-04-15T20:14:39.202Z,8.17
2024-04-15T20:17:21.579Z,8.19
2024-04-15T20:19:50.989Z,8.09
2024-04-15T20:22:17.734Z,7.91
2024-04-15T20:24:44.542Z,7.92
2024-04-15T20:27:11.642Z,7.98
2024-04-15T20:29:38.534Z,7.98
2024-04-15T20:32:06.668Z,8.04
2024-04-15T20:34:33.410Z,8.01
2024-04-15T20:37:00.273Z,7.84
2024-04-15T20:39:26.958Z,7.94
2024-04-15T20:41:53.656Z,7.93
2024-04-15T20:44:20.353Z,7.87
2024-04-15T20:46:47.093Z,7.88
2024-04-15T20:49:13.848Z,7.86
2024-04-15T20:51:40.556Z,7.81
2024-04-15T20:54:07.169Z,7.90
2024-04-15T20:56:33.832Z,7.88
2024-04-15T20:59:00.569Z,7.94
2024-04-15T21:01:28.530Z,7.91
2024-04-15T21:03:55.270Z,7.90
2024-04-15T21:06:24.788Z,7.76
2024-04-15T21:08:53.992Z,7.82
2024-04-15T21:11:21.379Z,7.52
2024-04-15T21:13:48.154Z,7.80
2024-04-15T21:16:14.969Z,7.83
2024-04-15T21:18:41.656Z,7.88
2024-04-15T21:21:08.288Z,7.90
2024-04-15T21:23:34.909Z,7.98
2024-04-15T21:26:04.729Z,7.68
2024-04-15T21:28:31.492Z,8.00
2024-04-15T21:30:59.262Z,8.04
2024-04-15T21:33:26.044Z,7.98
2024-04-15T21:35:52.836Z,7.77
2024-04-15T21:38:19.568Z,7.99
2024-04-15T21:40:46.245Z,8.01
2024-04-15T21:43:13.453Z,8.09
2024-04-15T21:45:40.720Z,7.73
2024-04-15T21:48:07.637Z,7.02
2024-04-15T21:50:34.299Z,6.98
2024-04-15T21:53:00.955Z,7.14
2024-04-15T21:55:27.762Z,7.21
2024-04-15T21:57:58.687Z,7.31
2024-04-15T22:00:25.602Z,7.35
2024-04-15T22:02:52.258Z,7.38
2024-04-15T22:05:19.554Z,7.41
2024-04-15T22:07:48.464Z,7.44
2024-04-15T22:10:15.332Z,7.44
2024-04-15T22:12:42.543Z,7.33
2024-04-15T22:15:09.572Z,7.25
2024-04-15T22:17:36.342Z,7.29
2024-04-15T22:20:03.844Z,7.33
2024-04-15T22:22:30.470Z,7.28
2024-04-15T22:24:57.052Z,7.36
2024-04-15T22:27:23.815Z,7.37
2024-04-15T22:29:50.921Z,7.33
2024-04-15T22:32:17.516Z,7.24
2024-04-15T22:34:45.400Z,7.20
2024-04-15T22:37:13.905Z,7.24
2024-04-15T22:39:40.519Z,7.20
2024-04-15T22:42:07.174Z,7.25
2024-04-15T22:44:33.931Z,7.06
2024-04-15T22:47:01.186Z,7.02
2024-04-15T22:49:28.711Z,6.90
2024-04-15T22:51:55.347Z,6.96
2024-04-15T22:54:23.841Z,6.88
2024-04-15T22:56:50.837Z,6.74
2024-04-15T22:59:17.447Z,6.78
2024-04-15T23:01:44.170Z,6.54
2024-04-15T23:04:11.029Z,6.34
2024-04-15T23:06:37.789Z,6.36
2024-04-15T23:09:04.531Z,6.29
2024-04-15T23:11:33.274Z,5.82
2024-04-15T23:13:59.873Z,5.45
2024-04-15T23:16:26.635Z,5.14
2024-04-15T23:18:56.150Z,5.20
2024-04-15T23:21:22.797Z,5.24
2024-04-15T23:23:51.398Z,5.36
2024-04-15T23:26:19.154Z,5.71
2024-04-15T23:28:45.689Z,5.96
2024-04-15T23:31:12.415Z,6.16
2024-04-15T23:33:40.036Z,6.40
2024-04-15T23:36:06.825Z,6.53
2024-04-15T23:38:33.359Z,6.59
2024-04-15T23:41:00.228Z,6.45
2024-04-15T23:43:26.955Z,6.62
2024-04-15T23:46:12.144Z,6.73
2024-04-15T23:48:57.844Z,6.88
2024-04-15T23:51:43.695Z,6.95
2024-04-15T23:54:32.942Z,7.00
2024-04-15T23:57:18.464Z,7.02
2024-04-15T23:59:45.081Z,7.09
